Portada
METAR-TAF:

METAR-TAF

Aeropuertos :

London-Corbin Airport (Magee Field)

London, Kentucky, Estados Unidos

latitud: 37-05-22N, longitud: 084-04-07W, altitud: 369 m

Observación

El informe se hizo hace 38 minutos, a las 18:53 UTC
Viento 3 kt con dirección variable
Temperatura 29°C
Humedad 55%
Presión 1026 hPa
Visibilidad: 16.1 km
Cielo despejado

METAR: KLOZ 191853Z AUTO VRB03KT 10SM CLR 29/19 A3031 RMK AO2 SLP248 T02890189

Hora: 15:31 (19:31 UTC)

Pronóstico

El informe se hizo hace 2 horas y 11 minutos, a las 17:20 UTC
Pronóstico válido del 19 a las 18 UTC al 20 a las 18 UTC
Viento 4 kt del sur
Visibilidad: 10 km
Escasas nubes a una altura de 6000 ft
Cielo nuboso a una altura de 25000 ft
A partir de las 20 a las 0200 UTC
Viento kt del norte
Visibilidad: 10 km
Escasas nubes a una altura de 25000 ft

TAF: KLOZ 191720Z 1918/2018 18004KT P6SM FEW060 BKN250 FM200200 00000KT P6SM FEW250

Observaciones y pronósticos meteorológicos de más de 4000 aeropuertos (mensajes METAR y TAF).

Los puntos amarillos y rojos representan las estaciones disponibles.

Ponga el ratón en el punto deseado para ver el nombre de la estación.

Haga clic para ver las observaciones y los pronósticos meteorológicos.

Para cambiar el mapa : haga clic en los botones verdes con una cruz de color negro para hacer un zoom, en el botón verde con un guión para alejar o en las flechas verdes para mapas adyacentes.


METAR-TAF: